sensor_id;sensor_type;location;lat;lon;timestamp;P1;durP1;ratioP1;P2;durP2;ratioP2
48881;SDS011;57063;51.406;-2.402;2024-03-07T00:00:44;26.13;;;17.75;;
48881;SDS011;57063;51.406;-2.402;2024-03-07T00:03:10;29.02;;;17.83;;
48881;SDS011;57063;51.406;-2.402;2024-03-07T00:05:35;27.48;;;18.25;;
48881;SDS011;57063;51.406;-2.402;2024-03-07T00:08:00;27.13;;;17.35;;
48881;SDS011;57063;51.406;-2.402;2024-03-07T00:10:26;29.50;;;18.75;;
48881;SDS011;57063;51.406;-2.402;2024-03-07T00:12:52;24.52;;;17.58;;
48881;SDS011;57063;51.406;-2.402;2024-03-07T00:15:17;27.05;;;17.52;;
48881;SDS011;57063;51.406;-2.402;2024-03-07T00:17:43;29.65;;;15.75;;
48881;SDS011;57063;51.406;-2.402;2024-03-07T00:20:08;26.88;;;16.88;;
48881;SDS011;57063;51.406;-2.402;2024-03-07T00:22:37;31.83;;;18.52;;
48881;SDS011;57063;51.406;-2.402;2024-03-07T00:25:02;33.85;;;20.15;;
48881;SDS011;57063;51.406;-2.402;2024-03-07T00:27:31;30.02;;;19.35;;
48881;SDS011;57063;51.406;-2.402;2024-03-07T00:32:24;31.45;;;19.55;;
48881;SDS011;57063;51.406;-2.402;2024-03-07T00:34:49;31.15;;;18.38;;
48881;SDS011;57063;51.406;-2.402;2024-03-07T00:37:15;27.55;;;17.52;;
48881;SDS011;57063;51.406;-2.402;2024-03-07T00:39:41;29.00;;;17.50;;
48881;SDS011;57063;51.406;-2.402;2024-03-07T00:42:06;31.50;;;19.08;;
48881;SDS011;57063;51.406;-2.402;2024-03-07T00:44:31;29.58;;;20.20;;
48881;SDS011;57063;51.406;-2.402;2024-03-07T00:46:57;33.00;;;19.55;;
48881;SDS011;57063;51.406;-2.402;2024-03-07T00:49:22;34.15;;;19.58;;
48881;SDS011;57063;51.406;-2.402;2024-03-07T00:51:48;34.67;;;21.65;;
48881;SDS011;57063;51.406;-2.402;2024-03-07T00:54:13;29.25;;;21.13;;
48881;SDS011;57063;51.406;-2.402;2024-03-07T00:56:39;33.20;;;22.38;;
48881;SDS011;57063;51.406;-2.402;2024-03-07T00:59:04;31.73;;;20.25;;
48881;SDS011;57063;51.406;-2.402;2024-03-07T01:01:30;33.08;;;20.10;;
48881;SDS011;57063;51.406;-2.402;2024-03-07T01:03:56;29.15;;;19.40;;
48881;SDS011;57063;51.406;-2.402;2024-03-07T01:06:22;33.75;;;20.33;;
48881;SDS011;57063;51.406;-2.402;2024-03-07T01:08:47;31.95;;;19.48;;
48881;SDS011;57063;51.406;-2.402;2024-03-07T01:11:12;31.00;;;19.77;;
48881;SDS011;57063;51.406;-2.402;2024-03-07T01:13:38;34.35;;;20.70;;
48881;SDS011;57063;51.406;-2.402;2024-03-07T01:16:04;29.83;;;20.25;;
48881;SDS011;57063;51.406;-2.402;2024-03-07T01:18:29;29.80;;;20.35;;
48881;SDS011;57063;51.406;-2.402;2024-03-07T01:20:55;34.90;;;21.15;;
48881;SDS011;57063;51.406;-2.402;2024-03-07T01:23:21;28.98;;;18.48;;
48881;SDS011;57063;51.406;-2.402;2024-03-07T01:25:46;28.15;;;18.70;;
48881;SDS011;57063;51.406;-2.402;2024-03-07T01:28:11;33.80;;;20.98;;
48881;SDS011;57063;51.406;-2.402;2024-03-07T01:30:37;29.52;;;18.00;;
48881;SDS011;57063;51.406;-2.402;2024-03-07T01:33:03;29.90;;;17.83;;
48881;SDS011;57063;51.406;-2.402;2024-03-07T01:35:28;28.20;;;17.75;;
48881;SDS011;57063;51.406;-2.402;2024-03-07T01:37:57;26.42;;;17.23;;
48881;SDS011;57063;51.406;-2.402;2024-03-07T01:40:22;27.60;;;17.92;;
48881;SDS011;57063;51.406;-2.402;2024-03-07T01:42:50;29.00;;;18.73;;
48881;SDS011;57063;51.406;-2.402;2024-03-07T01:45:16;27.73;;;18.25;;
48881;SDS011;57063;51.406;-2.402;2024-03-07T01:47:43;29.85;;;19.58;;
48881;SDS011;57063;51.406;-2.402;2024-03-07T01:50:09;28.42;;;17.95;;
48881;SDS011;57063;51.406;-2.402;2024-03-07T01:52:34;27.75;;;18.55;;
48881;SDS011;57063;51.406;-2.402;2024-03-07T01:55:05;33.72;;;19.40;;
48881;SDS011;57063;51.406;-2.402;2024-03-07T01:57:36;27.60;;;16.95;;
48881;SDS011;57063;51.406;-2.402;2024-03-07T02:00:01;26.95;;;17.50;;
48881;SDS011;57063;51.406;-2.402;2024-03-07T02:02:30;29.25;;;17.90;;
48881;SDS011;57063;51.406;-2.402;2024-03-07T02:04:55;25.65;;;18.13;;
48881;SDS011;57063;51.406;-2.402;2024-03-07T02:07:20;31.45;;;20.30;;
48881;SDS011;57063;51.406;-2.402;2024-03-07T02:09:46;33.08;;;20.05;;
48881;SDS011;57063;51.406;-2.402;2024-03-07T02:12:11;34.95;;;19.35;;
48881;SDS011;57063;51.406;-2.402;2024-03-07T02:14:37;32.30;;;20.20;;
48881;SDS011;57063;51.406;-2.402;2024-03-07T02:17:02;29.85;;;20.58;;
48881;SDS011;57063;51.406;-2.402;2024-03-07T02:19:29;30.98;;;19.73;;
48881;SDS011;57063;51.406;-2.402;2024-03-07T02:21:54;32.08;;;21.25;;
48881;SDS011;57063;51.406;-2.402;2024-03-07T02:24:19;37.22;;;20.73;;
48881;SDS011;57063;51.406;-2.402;2024-03-07T02:26:45;34.40;;;20.63;;
48881;SDS011;57063;51.406;-2.402;2024-03-07T02:29:10;33.20;;;19.58;;
48881;SDS011;57063;51.406;-2.402;2024-03-07T02:31:35;34.58;;;21.15;;
48881;SDS011;57063;51.406;-2.402;2024-03-07T02:34:02;31.35;;;19.30;;
48881;SDS011;57063;51.406;-2.402;2024-03-07T02:36:27;31.77;;;18.30;;
48881;SDS011;57063;51.406;-2.402;2024-03-07T02:38:53;30.88;;;18.83;;
48881;SDS011;57063;51.406;-2.402;2024-03-07T02:41:19;33.20;;;19.98;;
48881;SDS011;57063;51.406;-2.402;2024-03-07T02:43:44;33.50;;;20.73;;
48881;SDS011;57063;51.406;-2.402;2024-03-07T02:46:09;31.75;;;18.83;;
48881;SDS011;57063;51.406;-2.402;2024-03-07T02:48:37;34.20;;;20.98;;
48881;SDS011;57063;51.406;-2.402;2024-03-07T02:51:02;33.78;;;21.10;;
48881;SDS011;57063;51.406;-2.402;2024-03-07T02:53:28;36.58;;;20.00;;
48881;SDS011;57063;51.406;-2.402;2024-03-07T02:55:53;35.03;;;20.48;;
48881;SDS011;57063;51.406;-2.402;2024-03-07T02:58:19;35.53;;;19.90;;
48881;SDS011;57063;51.406;-2.402;2024-03-07T03:00:45;31.83;;;19.23;;
48881;SDS011;57063;51.406;-2.402;2024-03-07T03:03:10;38.22;;;20.52;;
48881;SDS011;57063;51.406;-2.402;2024-03-07T03:05:36;29.50;;;19.10;;
48881;SDS011;57063;51.406;-2.402;2024-03-07T03:08:01;31.85;;;19.63;;
48881;SDS011;57063;51.406;-2.402;2024-03-07T03:10:27;34.10;;;18.60;;
48881;SDS011;57063;51.406;-2.402;2024-03-07T03:12:57;34.05;;;19.45;;
48881;SDS011;57063;51.406;-2.402;2024-03-07T03:15:26;32.58;;;19.33;;
48881;SDS011;57063;51.406;-2.402;2024-03-07T03:17:51;34.13;;;18.13;;
48881;SDS011;57063;51.406;-2.402;2024-03-07T03:20:17;33.67;;;18.25;;
48881;SDS011;57063;51.406;-2.402;2024-03-07T03:22:56;37.90;;;19.95;;
48881;SDS011;57063;51.406;-2.402;2024-03-07T03:25:21;29.83;;;18.58;;
48881;SDS011;57063;51.406;-2.402;2024-03-07T03:27:48;31.85;;;18.75;;
48881;SDS011;57063;51.406;-2.402;2024-03-07T03:30:14;30.83;;;17.42;;
48881;SDS011;57063;51.406;-2.402;2024-03-07T03:32:40;28.65;;;19.02;;
48881;SDS011;57063;51.406;-2.402;2024-03-07T03:35:06;33.90;;;17.48;;
48881;SDS011;57063;51.406;-2.402;2024-03-07T03:37:32;35.80;;;17.92;;
48881;SDS011;57063;51.406;-2.402;2024-03-07T03:39:57;35.83;;;19.45;;
48881;SDS011;57063;51.406;-2.402;2024-03-07T03:42:22;28.27;;;16.75;;
48881;SDS011;57063;51.406;-2.402;2024-03-07T03:44:48;30.98;;;18.33;;
48881;SDS011;57063;51.406;-2.402;2024-03-07T03:47:14;31.85;;;18.52;;
48881;SDS011;57063;51.406;-2.402;2024-03-07T03:49:39;31.17;;;18.85;;
48881;SDS011;57063;51.406;-2.402;2024-03-07T03:52:05;31.08;;;18.63;;
48881;SDS011;57063;51.406;-2.402;2024-03-07T03:54:30;32.80;;;17.55;;
48881;SDS011;57063;51.406;-2.402;2024-03-07T03:56:56;28.85;;;16.52;;
48881;SDS011;57063;51.406;-2.402;2024-03-07T03:59:21;32.17;;;18.17;;
48881;SDS011;57063;51.406;-2.402;2024-03-07T04:01:46;27.33;;;16.33;;
48881;SDS011;57063;51.406;-2.402;2024-03-07T04:04:13;27.40;;;16.70;;
48881;SDS011;57063;51.406;-2.402;2024-03-07T04:06:38;31.50;;;18.27;;
48881;SDS011;57063;51.406;-2.402;2024-03-07T04:09:05;21.88;;;15.20;;
48881;SDS011;57063;51.406;-2.402;2024-03-07T04:11:30;23.10;;;15.00;;
48881;SDS011;57063;51.406;-2.402;2024-03-07T04:13:55;33.10;;;16.35;;
48881;SDS011;57063;51.406;-2.402;2024-03-07T04:16:21;25.40;;;15.00;;
48881;SDS011;57063;51.406;-2.402;2024-03-07T04:18:46;30.25;;;15.95;;
48881;SDS011;57063;51.406;-2.402;2024-03-07T04:21:12;28.00;;;15.93;;
48881;SDS011;57063;51.406;-2.402;2024-03-07T04:23:39;27.58;;;15.32;;
48881;SDS011;57063;51.406;-2.402;2024-03-07T04:26:05;21.17;;;13.88;;
48881;SDS011;57063;51.406;-2.402;2024-03-07T04:28:30;22.25;;;14.57;;
48881;SDS011;57063;51.406;-2.402;2024-03-07T04:30:55;24.50;;;16.15;;
48881;SDS011;57063;51.406;-2.402;2024-03-07T04:33:20;23.70;;;14.75;;
48881;SDS011;57063;51.406;-2.402;2024-03-07T04:35:47;22.70;;;14.65;;
48881;SDS011;57063;51.406;-2.402;2024-03-07T04:38:13;23.58;;;15.25;;
48881;SDS011;57063;51.406;-2.402;2024-03-07T04:40:41;27.20;;;15.43;;
48881;SDS011;57063;51.406;-2.402;2024-03-07T04:43:06;23.73;;;15.07;;
48881;SDS011;57063;51.406;-2.402;2024-03-07T04:45:32;24.17;;;15.57;;
48881;SDS011;57063;51.406;-2.402;2024-03-07T04:47:59;24.40;;;15.38;;
48881;SDS011;57063;51.406;-2.402;2024-03-07T04:50:24;24.58;;;14.75;;
48881;SDS011;57063;51.406;-2.402;2024-03-07T04:52:50;26.25;;;15.52;;
48881;SDS011;57063;51.406;-2.402;2024-03-07T04:55:16;25.90;;;14.30;;
48881;SDS011;57063;51.406;-2.402;2024-03-07T04:57:41;27.48;;;17.40;;
48881;SDS011;57063;51.406;-2.402;2024-03-07T05:00:07;28.45;;;17.20;;
48881;SDS011;57063;51.406;-2.402;2024-03-07T05:02:33;28.20;;;16.85;;
48881;SDS011;57063;51.406;-2.402;2024-03-07T05:04:58;26.65;;;15.25;;
48881;SDS011;57063;51.406;-2.402;2024-03-07T05:07:24;28.13;;;15.32;;
48881;SDS011;57063;51.406;-2.402;2024-03-07T05:09:49;26.48;;;15.35;;
48881;SDS011;57063;51.406;-2.402;2024-03-07T05:12:15;26.08;;;15.38;;
48881;SDS011;57063;51.406;-2.402;2024-03-07T05:14:40;26.98;;;16.00;;
48881;SDS011;57063;51.406;-2.402;2024-03-07T05:17:05;26.75;;;16.75;;
48881;SDS011;57063;51.406;-2.402;2024-03-07T05:19:33;25.88;;;15.38;;
48881;SDS011;57063;51.406;-2.402;2024-03-07T05:21:58;31.52;;;16.58;;
48881;SDS011;57063;51.406;-2.402;2024-03-07T05:24:24;33.17;;;17.38;;
48881;SDS011;57063;51.406;-2.402;2024-03-07T05:26:49;30.20;;;17.55;;
48881;SDS011;57063;51.406;-2.402;2024-03-07T05:29:15;29.45;;;17.05;;
48881;SDS011;57063;51.406;-2.402;2024-03-07T05:31:42;29.75;;;16.48;;
48881;SDS011;57063;51.406;-2.402;2024-03-07T05:34:14;29.88;;;17.40;;
48881;SDS011;57063;51.406;-2.402;2024-03-07T05:36:40;31.70;;;18.27;;
48881;SDS011;57063;51.406;-2.402;2024-03-07T05:39:13;32.95;;;18.35;;
48881;SDS011;57063;51.406;-2.402;2024-03-07T05:41:38;30.58;;;17.30;;
48881;SDS011;57063;51.406;-2.402;2024-03-07T05:44:04;29.75;;;17.55;;
48881;SDS011;57063;51.406;-2.402;2024-03-07T05:46:42;31.98;;;16.83;;
48881;SDS011;57063;51.406;-2.402;2024-03-07T05:49:14;31.02;;;17.90;;
48881;SDS011;57063;51.406;-2.402;2024-03-07T05:51:40;31.27;;;17.63;;
48881;SDS011;57063;51.406;-2.402;2024-03-07T05:54:07;29.20;;;16.83;;
48881;SDS011;57063;51.406;-2.402;2024-03-07T05:56:35;32.20;;;18.60;;
48881;SDS011;57063;51.406;-2.402;2024-03-07T05:59:04;32.10;;;17.10;;
48881;SDS011;57063;51.406;-2.402;2024-03-07T06:01:36;31.88;;;18.33;;
48881;SDS011;57063;51.406;-2.402;2024-03-07T06:04:02;33.25;;;19.52;;
48881;SDS011;57063;51.406;-2.402;2024-03-07T06:06:27;32.92;;;18.75;;
48881;SDS011;57063;51.406;-2.402;2024-03-07T06:08:53;39.03;;;18.48;;
48881;SDS011;57063;51.406;-2.402;2024-03-07T06:11:18;33.08;;;19.98;;
48881;SDS011;57063;51.406;-2.402;2024-03-07T06:13:47;36.28;;;19.50;;
48881;SDS011;57063;51.406;-2.402;2024-03-07T06:16:13;44.40;;;20.17;;
48881;SDS011;57063;51.406;-2.402;2024-03-07T06:18:39;39.40;;;21.20;;
48881;SDS011;57063;51.406;-2.402;2024-03-07T06:21:07;44.55;;;22.35;;
48881;SDS011;57063;51.406;-2.402;2024-03-07T06:23:33;44.20;;;20.70;;
48881;SDS011;57063;51.406;-2.402;2024-03-07T06:25:58;43.97;;;21.50;;
48881;SDS011;57063;51.406;-2.402;2024-03-07T06:28:27;46.78;;;21.77;;
48881;SDS011;57063;51.406;-2.402;2024-03-07T06:30:55;49.83;;;25.67;;
48881;SDS011;57063;51.406;-2.402;2024-03-07T06:33:21;53.85;;;24.67;;
48881;SDS011;57063;51.406;-2.402;2024-03-07T06:35:50;53.55;;;24.95;;
48881;SDS011;57063;51.406;-2.402;2024-03-07T06:38:36;58.47;;;26.52;;
48881;SDS011;57063;51.406;-2.402;2024-03-07T06:41:06;54.10;;;25.37;;
48881;SDS011;57063;51.406;-2.402;2024-03-07T06:43:36;61.15;;;28.35;;
48881;SDS011;57063;51.406;-2.402;2024-03-07T06:46:02;62.00;;;28.67;;
48881;SDS011;57063;51.406;-2.402;2024-03-07T06:48:28;61.75;;;26.33;;
48881;SDS011;57063;51.406;-2.402;2024-03-07T06:50:53;59.33;;;26.38;;
48881;SDS011;57063;51.406;-2.402;2024-03-07T06:56:01;65.15;;;27.33;;
48881;SDS011;57063;51.406;-2.402;2024-03-07T07:01:06;69.03;;;27.15;;
48881;SDS011;57063;51.406;-2.402;2024-03-07T07:03:36;71.68;;;29.00;;
48881;SDS011;57063;51.406;-2.402;2024-03-07T07:06:01;65.47;;;28.30;;
48881;SDS011;57063;51.406;-2.402;2024-03-07T07:08:27;61.17;;;24.60;;
48881;SDS011;57063;51.406;-2.402;2024-03-07T07:10:55;70.88;;;26.92;;
48881;SDS011;57063;51.406;-2.402;2024-03-07T07:13:21;68.65;;;28.38;;
48881;SDS011;57063;51.406;-2.402;2024-03-07T07:15:49;68.93;;;27.02;;
48881;SDS011;57063;51.406;-2.402;2024-03-07T07:18:15;63.33;;;26.80;;
48881;SDS011;57063;51.406;-2.402;2024-03-07T07:20:43;75.43;;;28.65;;
48881;SDS011;57063;51.406;-2.402;2024-03-07T07:23:10;67.10;;;27.77;;
48881;SDS011;57063;51.406;-2.402;2024-03-07T07:25:35;62.08;;;26.85;;
48881;SDS011;57063;51.406;-2.402;2024-03-07T07:28:01;65.13;;;26.13;;
48881;SDS011;57063;51.406;-2.402;2024-03-07T07:30:30;65.75;;;26.92;;
48881;SDS011;57063;51.406;-2.402;2024-03-07T07:32:56;63.55;;;26.35;;
48881;SDS011;57063;51.406;-2.402;2024-03-07T07:35:21;67.00;;;27.52;;
48881;SDS011;57063;51.406;-2.402;2024-03-07T07:37:48;66.07;;;27.02;;
48881;SDS011;57063;51.406;-2.402;2024-03-07T07:40:17;61.53;;;26.02;;
48881;SDS011;57063;51.406;-2.402;2024-03-07T07:42:46;64.53;;;26.02;;
48881;SDS011;57063;51.406;-2.402;2024-03-07T07:45:12;61.17;;;25.63;;
48881;SDS011;57063;51.406;-2.402;2024-03-07T07:50:05;53.15;;;23.92;;
48881;SDS011;57063;51.406;-2.402;2024-03-07T07:52:39;60.45;;;24.17;;
48881;SDS011;57063;51.406;-2.402;2024-03-07T07:55:04;49.83;;;21.45;;
48881;SDS011;57063;51.406;-2.402;2024-03-07T07:57:30;50.10;;;22.50;;
48881;SDS011;57063;51.406;-2.402;2024-03-07T07:59:55;53.83;;;21.02;;
48881;SDS011;57063;51.406;-2.402;2024-03-07T08:02:20;52.38;;;24.10;;
48881;SDS011;57063;51.406;-2.402;2024-03-07T08:04:47;42.53;;;19.30;;
48881;SDS011;57063;51.406;-2.402;2024-03-07T08:07:14;54.80;;;21.77;;
48881;SDS011;57063;51.406;-2.402;2024-03-07T08:09:39;48.35;;;21.55;;
48881;SDS011;57063;51.406;-2.402;2024-03-07T08:12:05;47.70;;;20.05;;
48881;SDS011;57063;51.406;-2.402;2024-03-07T08:14:31;50.08;;;19.55;;
48881;SDS011;57063;51.406;-2.402;2024-03-07T08:16:56;47.20;;;20.73;;
48881;SDS011;57063;51.406;-2.402;2024-03-07T08:19:21;41.08;;;20.30;;
48881;SDS011;57063;51.406;-2.402;2024-03-07T08:21:48;41.58;;;19.02;;
48881;SDS011;57063;51.406;-2.402;2024-03-07T08:24:13;40.15;;;19.23;;
48881;SDS011;57063;51.406;-2.402;2024-03-07T08:26:39;39.63;;;18.40;;
48881;SDS011;57063;51.406;-2.402;2024-03-07T08:29:09;35.97;;;17.95;;
48881;SDS011;57063;51.406;-2.402;2024-03-07T08:31:34;37.13;;;18.20;;
48881;SDS011;57063;51.406;-2.402;2024-03-07T08:33:59;43.03;;;18.13;;
48881;SDS011;57063;51.406;-2.402;2024-03-07T08:36:25;35.63;;;15.95;;
48881;SDS011;57063;51.406;-2.402;2024-03-07T08:38:52;42.78;;;19.67;;
48881;SDS011;57063;51.406;-2.402;2024-03-07T08:41:59;35.88;;;17.17;;
48881;SDS011;57063;51.406;-2.402;2024-03-07T08:44:34;41.90;;;17.50;;
48881;SDS011;57063;51.406;-2.402;2024-03-07T08:47:03;37.20;;;17.17;;
48881;SDS011;57063;51.406;-2.402;2024-03-07T08:49:28;39.63;;;18.52;;
48881;SDS011;57063;51.406;-2.402;2024-03-07T08:51:54;41.35;;;17.65;;
48881;SDS011;57063;51.406;-2.402;2024-03-07T08:54:19;40.47;;;17.52;;
48881;SDS011;57063;51.406;-2.402;2024-03-07T08:56:45;37.65;;;17.42;;
48881;SDS011;57063;51.406;-2.402;2024-03-07T08:59:10;37.25;;;17.58;;
48881;SDS011;57063;51.406;-2.402;2024-03-07T09:01:43;40.08;;;18.10;;
48881;SDS011;57063;51.406;-2.402;2024-03-07T09:04:11;37.25;;;16.92;;
48881;SDS011;57063;51.406;-2.402;2024-03-07T09:06:38;39.70;;;17.98;;
48881;SDS011;57063;51.406;-2.402;2024-03-07T09:09:04;34.33;;;17.20;;
48881;SDS011;57063;51.406;-2.402;2024-03-07T09:11:39;36.22;;;17.33;;
48881;SDS011;57063;51.406;-2.402;2024-03-07T09:14:07;31.42;;;15.88;;
48881;SDS011;57063;51.406;-2.402;2024-03-07T09:16:34;40.13;;;17.75;;
48881;SDS011;57063;51.406;-2.402;2024-03-07T09:19:02;37.60;;;17.83;;
48881;SDS011;57063;51.406;-2.402;2024-03-07T09:24:08;38.80;;;17.98;;
48881;SDS011;57063;51.406;-2.402;2024-03-07T09:26:53;33.90;;;16.17;;
48881;SDS011;57063;51.406;-2.402;2024-03-07T09:29:21;36.08;;;17.98;;
48881;SDS011;57063;51.406;-2.402;2024-03-07T09:34:24;32.67;;;17.00;;
48881;SDS011;57063;51.406;-2.402;2024-03-07T09:36:50;29.05;;;13.93;;
48881;SDS011;57063;51.406;-2.402;2024-03-07T09:39:16;27.83;;;14.50;;
48881;SDS011;57063;51.406;-2.402;2024-03-07T09:46:50;25.38;;;15.18;;
48881;SDS011;57063;51.406;-2.402;2024-03-07T09:49:17;25.35;;;14.10;;
48881;SDS011;57063;51.406;-2.402;2024-03-07T09:51:44;22.77;;;13.40;;
48881;SDS011;57063;51.406;-2.402;2024-03-07T09:54:09;24.73;;;14.05;;
48881;SDS011;57063;51.406;-2.402;2024-03-07T09:56:35;25.90;;;13.13;;
48881;SDS011;57063;51.406;-2.402;2024-03-07T09:59:02;23.15;;;12.57;;
48881;SDS011;57063;51.406;-2.402;2024-03-07T10:01:29;22.95;;;12.77;;
48881;SDS011;57063;51.406;-2.402;2024-03-07T10:04:00;21.23;;;11.90;;
48881;SDS011;57063;51.406;-2.402;2024-03-07T10:06:38;21.70;;;12.40;;
48881;SDS011;57063;51.406;-2.402;2024-03-07T10:09:05;20.10;;;13.05;;
48881;SDS011;57063;51.406;-2.402;2024-03-07T10:11:34;26.80;;;13.45;;
48881;SDS011;57063;51.406;-2.402;2024-03-07T10:14:00;23.30;;;13.68;;
48881;SDS011;57063;51.406;-2.402;2024-03-07T10:16:30;23.60;;;13.48;;
48881;SDS011;57063;51.406;-2.402;2024-03-07T10:18:55;23.38;;;14.32;;
48881;SDS011;57063;51.406;-2.402;2024-03-07T10:21:22;22.38;;;12.80;;
48881;SDS011;57063;51.406;-2.402;2024-03-07T10:23:50;23.58;;;13.38;;
48881;SDS011;57063;51.406;-2.402;2024-03-07T10:26:18;23.02;;;13.60;;
48881;SDS011;57063;51.406;-2.402;2024-03-07T10:28:44;24.00;;;12.88;;
48881;SDS011;57063;51.406;-2.402;2024-03-07T10:31:10;21.15;;;12.65;;
48881;SDS011;57063;51.406;-2.402;2024-03-07T10:33:39;21.25;;;11.98;;
48881;SDS011;57063;51.406;-2.402;2024-03-07T10:36:05;25.85;;;13.38;;
48881;SDS011;57063;51.406;-2.402;2024-03-07T10:38:35;23.08;;;13.90;;
48881;SDS011;57063;51.406;-2.402;2024-03-07T10:41:05;23.67;;;13.27;;
48881;SDS011;57063;51.406;-2.402;2024-03-07T10:43:48;24.13;;;13.57;;
48881;SDS011;57063;51.406;-2.402;2024-03-07T10:46:25;21.60;;;12.60;;
48881;SDS011;57063;51.406;-2.402;2024-03-07T10:48:55;18.92;;;12.38;;
48881;SDS011;57063;51.406;-2.402;2024-03-07T10:51:40;24.05;;;13.85;;
48881;SDS011;57063;51.406;-2.402;2024-03-07T10:59:56;30.33;;;14.65;;
48881;SDS011;57063;51.406;-2.402;2024-03-07T11:04:49;24.45;;;15.70;;
48881;SDS011;57063;51.406;-2.402;2024-03-07T11:07:17;25.90;;;14.48;;
48881;SDS011;57063;51.406;-2.402;2024-03-07T11:09:42;27.90;;;15.45;;
48881;SDS011;57063;51.406;-2.402;2024-03-07T11:12:10;22.70;;;13.38;;
48881;SDS011;57063;51.406;-2.402;2024-03-07T11:14:36;23.30;;;14.15;;
48881;SDS011;57063;51.406;-2.402;2024-03-07T11:17:03;24.42;;;14.23;;
48881;SDS011;57063;51.406;-2.402;2024-03-07T11:19:32;23.42;;;14.90;;
48881;SDS011;57063;51.406;-2.402;2024-03-07T11:22:01;22.48;;;13.98;;
48881;SDS011;57063;51.406;-2.402;2024-03-07T11:24:27;21.23;;;12.45;;
48881;SDS011;57063;51.406;-2.402;2024-03-07T11:27:02;20.30;;;12.38;;
48881;SDS011;57063;51.406;-2.402;2024-03-07T11:29:44;20.58;;;13.35;;
48881;SDS011;57063;51.406;-2.402;2024-03-07T11:32:12;19.35;;;11.73;;
48881;SDS011;57063;51.406;-2.402;2024-03-07T11:34:46;20.50;;;12.32;;
48881;SDS011;57063;51.406;-2.402;2024-03-07T11:37:18;19.85;;;12.05;;
48881;SDS011;57063;51.406;-2.402;2024-03-07T11:39:47;17.38;;;11.00;;
48881;SDS011;57063;51.406;-2.402;2024-03-07T11:42:28;21.35;;;11.68;;
48881;SDS011;57063;51.406;-2.402;2024-03-07T11:44:55;16.75;;;10.88;;
48881;SDS011;57063;51.406;-2.402;2024-03-07T11:47:21;14.73;;;9.18;;
48881;SDS011;57063;51.406;-2.402;2024-03-07T11:49:49;12.70;;;8.55;;
48881;SDS011;57063;51.406;-2.402;2024-03-07T11:52:15;11.75;;;7.68;;
48881;SDS011;57063;51.406;-2.402;2024-03-07T11:57:22;11.10;;;7.40;;
48881;SDS011;57063;51.406;-2.402;2024-03-07T12:00:02;11.63;;;6.80;;
48881;SDS011;57063;51.406;-2.402;2024-03-07T12:02:53;11.20;;;6.90;;
48881;SDS011;57063;51.406;-2.402;2024-03-07T12:05:32;10.45;;;7.60;;
48881;SDS011;57063;51.406;-2.402;2024-03-07T12:08:00;11.82;;;6.32;;
48881;SDS011;57063;51.406;-2.402;2024-03-07T12:26:35;10.23;;;5.85;;
48881;SDS011;57063;51.406;-2.402;2024-03-07T12:36:45;13.93;;;6.50;;
48881;SDS011;57063;51.406;-2.402;2024-03-07T12:39:23;10.18;;;6.75;;
48881;SDS011;57063;51.406;-2.402;2024-03-07T12:44:39;14.68;;;10.05;;
48881;SDS011;57063;51.406;-2.402;2024-03-07T12:47:09;13.45;;;7.47;;
48881;SDS011;57063;51.406;-2.402;2024-03-07T12:49:35;15.65;;;8.23;;
48881;SDS011;57063;51.406;-2.402;2024-03-07T12:57:12;23.08;;;15.10;;
48881;SDS011;57063;51.406;-2.402;2024-03-07T12:59:38;23.33;;;15.88;;
48881;SDS011;57063;51.406;-2.402;2024-03-07T13:02:07;31.52;;;16.73;;
48881;SDS011;57063;51.406;-2.402;2024-03-07T13:09:42;26.92;;;17.17;;
48881;SDS011;57063;51.406;-2.402;2024-03-07T13:12:09;28.88;;;17.48;;
48881;SDS011;57063;51.406;-2.402;2024-03-07T13:14:35;25.48;;;15.82;;
48881;SDS011;57063;51.406;-2.402;2024-03-07T13:17:03;26.30;;;16.67;;
48881;SDS011;57063;51.406;-2.402;2024-03-07T13:19:29;24.48;;;16.65;;
48881;SDS011;57063;51.406;-2.402;2024-03-07T13:22:02;26.95;;;16.30;;
48881;SDS011;57063;51.406;-2.402;2024-03-07T13:24:31;26.38;;;16.67;;
48881;SDS011;57063;51.406;-2.402;2024-03-07T13:32:09;33.88;;;21.00;;
48881;SDS011;57063;51.406;-2.402;2024-03-07T13:34:37;30.13;;;19.30;;
48881;SDS011;57063;51.406;-2.402;2024-03-07T13:37:21;33.42;;;22.40;;
48881;SDS011;57063;51.406;-2.402;2024-03-07T13:55:20;53.08;;;31.13;;
48881;SDS011;57063;51.406;-2.402;2024-03-07T13:57:49;52.22;;;32.38;;
48881;SDS011;57063;51.406;-2.402;2024-03-07T14:05:35;55.03;;;33.53;;
48881;SDS011;57063;51.406;-2.402;2024-03-07T14:24:28;54.97;;;32.63;;
48881;SDS011;57063;51.406;-2.402;2024-03-07T14:29:40;51.40;;;33.33;;
48881;SDS011;57063;51.406;-2.402;2024-03-07T14:32:16;59.85;;;33.90;;
48881;SDS011;57063;51.406;-2.402;2024-03-07T14:35:00;57.22;;;35.00;;
48881;SDS011;57063;51.406;-2.402;2024-03-07T14:37:34;57.80;;;35.70;;
48881;SDS011;57063;51.406;-2.402;2024-03-07T14:40:07;61.05;;;37.80;;
48881;SDS011;57063;51.406;-2.402;2024-03-07T14:42:35;75.47;;;40.45;;
48881;SDS011;57063;51.406;-2.402;2024-03-07T14:45:01;63.72;;;39.20;;
48881;SDS011;57063;51.406;-2.402;2024-03-07T14:47:32;61.20;;;38.65;;
48881;SDS011;57063;51.406;-2.402;2024-03-07T14:55:02;67.35;;;39.13;;
48881;SDS011;57063;51.406;-2.402;2024-03-07T14:57:29;63.95;;;38.70;;
48881;SDS011;57063;51.406;-2.402;2024-03-07T14:59:58;61.55;;;39.60;;
48881;SDS011;57063;51.406;-2.402;2024-03-07T15:02:24;65.00;;;40.70;;
48881;SDS011;57063;51.406;-2.402;2024-03-07T15:04:53;63.78;;;38.67;;
48881;SDS011;57063;51.406;-2.402;2024-03-07T15:07:19;67.90;;;39.45;;
48881;SDS011;57063;51.406;-2.402;2024-03-07T15:09:48;66.43;;;41.33;;
48881;SDS011;57063;51.406;-2.402;2024-03-07T15:12:14;66.97;;;41.20;;
48881;SDS011;57063;51.406;-2.402;2024-03-07T15:17:25;63.70;;;39.17;;
48881;SDS011;57063;51.406;-2.402;2024-03-07T15:19:50;68.95;;;40.85;;
48881;SDS011;57063;51.406;-2.402;2024-03-07T15:22:15;66.88;;;39.90;;
48881;SDS011;57063;51.406;-2.402;2024-03-07T15:24:59;66.95;;;40.55;;
48881;SDS011;57063;51.406;-2.402;2024-03-07T15:27:27;67.18;;;42.65;;
48881;SDS011;57063;51.406;-2.402;2024-03-07T15:29:52;63.45;;;37.65;;
48881;SDS011;57063;51.406;-2.402;2024-03-07T15:32:17;66.50;;;40.08;;
48881;SDS011;57063;51.406;-2.402;2024-03-07T15:39:53;69.30;;;41.63;;
48881;SDS011;57063;51.406;-2.402;2024-03-07T15:42:18;65.03;;;37.75;;
48881;SDS011;57063;51.406;-2.402;2024-03-07T15:44:47;64.00;;;38.45;;
48881;SDS011;57063;51.406;-2.402;2024-03-07T15:47:13;67.80;;;40.50;;
48881;SDS011;57063;51.406;-2.402;2024-03-07T15:49:38;61.85;;;37.72;;
48881;SDS011;57063;51.406;-2.402;2024-03-07T15:52:05;60.83;;;39.35;;
48881;SDS011;57063;51.406;-2.402;2024-03-07T15:54:31;63.13;;;38.17;;
48881;SDS011;57063;51.406;-2.402;2024-03-07T15:56:56;59.72;;;36.38;;
48881;SDS011;57063;51.406;-2.402;2024-03-07T15:59:21;59.22;;;37.10;;
48881;SDS011;57063;51.406;-2.402;2024-03-07T16:01:47;59.08;;;34.67;;
48881;SDS011;57063;51.406;-2.402;2024-03-07T16:04:13;53.95;;;33.95;;
48881;SDS011;57063;51.406;-2.402;2024-03-07T16:17:08;55.63;;;35.92;;
48881;SDS011;57063;51.406;-2.402;2024-03-07T16:19:54;60.58;;;34.15;;
48881;SDS011;57063;51.406;-2.402;2024-03-07T16:22:22;56.35;;;36.10;;
48881;SDS011;57063;51.406;-2.402;2024-03-07T16:25:14;66.60;;;36.60;;
48881;SDS011;57063;51.406;-2.402;2024-03-07T16:27:46;57.90;;;34.58;;